Portada
METAR-TAF:

METAR-TAF

Aeroports :

Aeroport Internacional de Guangzhou-Baiyun

Canton, Xina

latitud: 23-10N, longitud: 113-20E, altitud: 8 m

Observació

L'informe es va fer fa 35 minuts, a les 16:00 UTC
Vent 4 kt del Sud-Est
Temperatura 26°C
Humitat 79%
Pressió 1014 hPa
Visibilitat 10 km o més
Cel ennuvolat a una alçada de 3600 ft

METAR: ZGGG 061600Z 13002MPS 9999 BKN036 26/22 Q1014 NOSIG

Hora: 00:35 (16:35 UTC)

Pronòstic

L'informe es va fer fa 7 hores i 25 minuts, a les 09:10 UTC
Pronòstic vàlid del 06 a les 12 UTC al 07 a les 12 UTC
Vent 8 kt del Sud
Visibilitat: 8000 m
Cel ennuvolat a una alçada de 4000 ft

TAF: ZGGG 060910Z 0612/0712 18004MPS 8000 BKN040 TX31/0707Z TN24/0622Z

Observacions i pronòstics meteorològics de més de 4000 aeroports (METAR i TAF).

Les estacions disponibles són els punts grocs i vermells al mapa.

Posi el ratolí al punt desitjat per veure el nom de l'estació.

Feu clic per veure les observacions i els pronòstics meteorològics.

Per canviar el mapa: feu clic els botons verds amb una creu de color negre per apropar; al botó verd amb un guió per allunyar la imatge; o en les fletxes verdes per a mapes adjacents.


METAR-TAF: